sensor_id;sensor_type;location;lat;lon;timestamp;P1;durP1;ratioP1;P2;durP2;ratioP2
74541;SDS011;63015;45.378;20.360;2023-02-01T00:01:07;15.75;;;5.80;;
74541;SDS011;63015;45.378;20.360;2023-02-01T00:03:08;12.85;;;5.78;;
74541;SDS011;63015;45.378;20.360;2023-02-01T00:05:09;15.27;;;5.75;;
74541;SDS011;63015;45.378;20.360;2023-02-01T00:07:10;16.73;;;6.03;;
74541;SDS011;63015;45.378;20.360;2023-02-01T00:09:11;12.18;;;5.28;;
74541;SDS011;63015;45.378;20.360;2023-02-01T00:11:12;14.40;;;5.68;;
74541;SDS011;63015;45.378;20.360;2023-02-01T00:13:13;11.82;;;5.50;;
74541;SDS011;63015;45.378;20.360;2023-02-01T00:15:13;10.95;;;4.63;;
74541;SDS011;63015;45.378;20.360;2023-02-01T00:17:14;11.38;;;5.68;;
74541;SDS011;63015;45.378;20.360;2023-02-01T00:19:15;12.63;;;5.60;;
74541;SDS011;63015;45.378;20.360;2023-02-01T00:21:17;11.93;;;5.18;;
74541;SDS011;63015;45.378;20.360;2023-02-01T00:23:20;12.38;;;5.45;;
74541;SDS011;63015;45.378;20.360;2023-02-01T00:25:20;15.00;;;5.05;;
74541;SDS011;63015;45.378;20.360;2023-02-01T00:27:21;13.80;;;5.75;;
74541;SDS011;63015;45.378;20.360;2023-02-01T00:29:21;12.50;;;5.45;;
74541;SDS011;63015;45.378;20.360;2023-02-01T00:31:22;10.70;;;5.43;;
74541;SDS011;63015;45.378;20.360;2023-02-01T00:33:23;12.25;;;4.97;;
74541;SDS011;63015;45.378;20.360;2023-02-01T00:35:23;12.32;;;5.20;;
74541;SDS011;63015;45.378;20.360;2023-02-01T00:37:24;10.43;;;4.70;;
74541;SDS011;63015;45.378;20.360;2023-02-01T00:39:25;11.93;;;5.45;;
74541;SDS011;63015;45.378;20.360;2023-02-01T00:41:25;13.57;;;6.72;;
74541;SDS011;63015;45.378;20.360;2023-02-01T00:43:26;13.80;;;6.43;;
74541;SDS011;63015;45.378;20.360;2023-02-01T00:45:26;13.88;;;5.82;;
74541;SDS011;63015;45.378;20.360;2023-02-01T00:47:27;13.25;;;5.80;;
74541;SDS011;63015;45.378;20.360;2023-02-01T00:49:28;11.95;;;5.65;;
74541;SDS011;63015;45.378;20.360;2023-02-01T00:51:29;14.00;;;5.55;;
74541;SDS011;63015;45.378;20.360;2023-02-01T00:53:29;13.85;;;5.57;;
74541;SDS011;63015;45.378;20.360;2023-02-01T00:55:30;12.15;;;5.72;;
74541;SDS011;63015;45.378;20.360;2023-02-01T00:57:31;13.18;;;5.95;;
74541;SDS011;63015;45.378;20.360;2023-02-01T00:59:31;14.80;;;5.63;;
74541;SDS011;63015;45.378;20.360;2023-02-01T01:01:32;11.98;;;5.75;;
74541;SDS011;63015;45.378;20.360;2023-02-01T01:03:34;12.30;;;5.60;;
74541;SDS011;63015;45.378;20.360;2023-02-01T01:05:37;10.52;;;5.32;;
74541;SDS011;63015;45.378;20.360;2023-02-01T01:07:38;14.55;;;5.53;;
74541;SDS011;63015;45.378;20.360;2023-02-01T01:09:38;11.70;;;5.35;;
74541;SDS011;63015;45.378;20.360;2023-02-01T01:11:39;14.10;;;6.13;;
74541;SDS011;63015;45.378;20.360;2023-02-01T01:13:40;11.60;;;4.43;;
74541;SDS011;63015;45.378;20.360;2023-02-01T01:15:41;12.77;;;6.10;;
74541;SDS011;63015;45.378;20.360;2023-02-01T01:17:42;12.40;;;5.53;;
74541;SDS011;63015;45.378;20.360;2023-02-01T01:19:42;13.30;;;4.85;;
74541;SDS011;63015;45.378;20.360;2023-02-01T01:21:43;12.30;;;5.30;;
74541;SDS011;63015;45.378;20.360;2023-02-01T01:23:44;11.40;;;5.22;;
74541;SDS011;63015;45.378;20.360;2023-02-01T01:25:45;15.32;;;5.32;;
74541;SDS011;63015;45.378;20.360;2023-02-01T01:27:46;13.95;;;5.45;;
74541;SDS011;63015;45.378;20.360;2023-02-01T01:29:47;13.65;;;5.30;;
74541;SDS011;63015;45.378;20.360;2023-02-01T01:31:47;10.57;;;4.80;;
74541;SDS011;63015;45.378;20.360;2023-02-01T01:33:49;11.68;;;5.03;;
74541;SDS011;63015;45.378;20.360;2023-02-01T01:35:51;11.38;;;4.60;;
74541;SDS011;63015;45.378;20.360;2023-02-01T01:37:51;13.25;;;4.88;;
74541;SDS011;63015;45.378;20.360;2023-02-01T01:39:52;12.07;;;4.80;;
74541;SDS011;63015;45.378;20.360;2023-02-01T01:41:52;12.10;;;4.25;;
74541;SDS011;63015;45.378;20.360;2023-02-01T01:43:59;12.23;;;4.85;;
74541;SDS011;63015;45.378;20.360;2023-02-01T01:46:02;11.02;;;4.50;;
74541;SDS011;63015;45.378;20.360;2023-02-01T01:48:48;10.65;;;4.68;;
74541;SDS011;63015;45.378;20.360;2023-02-01T01:50:33;11.05;;;3.85;;
74541;SDS011;63015;45.378;20.360;2023-02-01T01:52:39;8.48;;;3.97;;
74541;SDS011;63015;45.378;20.360;2023-02-01T01:54:45;7.95;;;3.80;;
74541;SDS011;63015;45.378;20.360;2023-02-01T01:56:50;9.27;;;3.90;;
74541;SDS011;63015;45.378;20.360;2023-02-01T01:58:55;11.55;;;3.83;;
74541;SDS011;63015;45.378;20.360;2023-02-01T02:00:56;9.52;;;3.45;;
74541;SDS011;63015;45.378;20.360;2023-02-01T02:02:58;9.05;;;3.42;;
74541;SDS011;63015;45.378;20.360;2023-02-01T02:05:03;10.00;;;4.28;;
74541;SDS011;63015;45.378;20.360;2023-02-01T02:07:06;10.18;;;3.90;;
74541;SDS011;63015;45.378;20.360;2023-02-01T02:09:11;8.02;;;3.47;;
74541;SDS011;63015;45.378;20.360;2023-02-01T02:11:12;10.55;;;4.10;;
74541;SDS011;63015;45.378;20.360;2023-02-01T02:13:17;8.52;;;4.00;;
74541;SDS011;63015;45.378;20.360;2023-02-01T02:15:18;8.25;;;4.13;;
74541;SDS011;63015;45.378;20.360;2023-02-01T02:33:41;24.60;;;8.50;;
74541;SDS011;63015;45.378;20.360;2023-02-01T02:35:51;26.02;;;8.23;;
74541;SDS011;63015;45.378;20.360;2023-02-01T02:40:25;15.40;;;6.00;;
74541;SDS011;63015;45.378;20.360;2023-02-01T02:42:29;19.33;;;7.72;;
74541;SDS011;63015;45.378;20.360;2023-02-01T02:45:15;14.60;;;5.68;;
74541;SDS011;63015;45.378;20.360;2023-02-01T02:52:29;17.75;;;5.97;;
74541;SDS011;63015;45.378;20.360;2023-02-01T02:54:51;12.55;;;5.47;;
74541;SDS011;63015;45.378;20.360;2023-02-01T02:56:55;12.98;;;6.07;;
74541;SDS011;63015;45.378;20.360;2023-02-01T02:59:17;11.68;;;5.43;;
74541;SDS011;63015;45.378;20.360;2023-02-01T03:01:41;11.63;;;5.10;;
74541;SDS011;63015;45.378;20.360;2023-02-01T03:04:00;13.07;;;4.93;;
74541;SDS011;63015;45.378;20.360;2023-02-01T03:06:12;11.00;;;4.88;;
74541;SDS011;63015;45.378;20.360;2023-02-01T03:08:17;13.48;;;4.82;;
74541;SDS011;63015;45.378;20.360;2023-02-01T03:10:30;10.23;;;4.60;;
74541;SDS011;63015;45.378;20.360;2023-02-01T03:12:42;10.07;;;4.57;;
74541;SDS011;63015;45.378;20.360;2023-02-01T03:14:59;11.77;;;5.60;;
74541;SDS011;63015;45.378;20.360;2023-02-01T03:17:11;12.77;;;6.25;;
74541;SDS011;63015;45.378;20.360;2023-02-01T03:19:31;10.95;;;5.70;;
74541;SDS011;63015;45.378;20.360;2023-02-01T03:21:45;11.88;;;5.72;;
74541;SDS011;63015;45.378;20.360;2023-02-01T03:23:50;13.50;;;5.35;;
74541;SDS011;63015;45.378;20.360;2023-02-01T03:25:53;12.70;;;5.20;;
74541;SDS011;63015;45.378;20.360;2023-02-01T03:28:01;16.83;;;5.60;;
74541;SDS011;63015;45.378;20.360;2023-02-01T03:32:24;21.00;;;7.10;;
74541;SDS011;63015;45.378;20.360;2023-02-01T03:34:25;17.13;;;6.38;;
74541;SDS011;63015;45.378;20.360;2023-02-01T03:36:30;17.08;;;5.95;;
74541;SDS011;63015;45.378;20.360;2023-02-01T03:40:48;11.95;;;4.65;;
74541;SDS011;63015;45.378;20.360;2023-02-01T03:42:54;11.02;;;4.20;;
74541;SDS011;63015;45.378;20.360;2023-02-01T03:47:10;8.07;;;2.72;;
74541;SDS011;63015;45.378;20.360;2023-02-01T03:49:18;6.63;;;2.92;;
74541;SDS011;63015;45.378;20.360;2023-02-01T03:51:25;7.25;;;2.70;;
74541;SDS011;63015;45.378;20.360;2023-02-01T03:53:26;6.55;;;2.40;;
74541;SDS011;63015;45.378;20.360;2023-02-01T03:55:30;7.63;;;2.47;;
74541;SDS011;63015;45.378;20.360;2023-02-01T03:57:35;6.25;;;3.05;;
74541;SDS011;63015;45.378;20.360;2023-02-01T03:59:40;7.75;;;2.30;;
74541;SDS011;63015;45.378;20.360;2023-02-01T04:01:42;8.02;;;2.35;;
74541;SDS011;63015;45.378;20.360;2023-02-01T04:03:42;7.47;;;2.20;;
74541;SDS011;63015;45.378;20.360;2023-02-01T04:05:45;7.95;;;2.85;;
74541;SDS011;63015;45.378;20.360;2023-02-01T04:07:45;10.45;;;3.40;;
74541;SDS011;63015;45.378;20.360;2023-02-01T04:09:46;10.85;;;4.25;;
74541;SDS011;63015;45.378;20.360;2023-02-01T04:11:46;9.00;;;2.72;;
74541;SDS011;63015;45.378;20.360;2023-02-01T04:13:47;6.57;;;3.00;;
74541;SDS011;63015;45.378;20.360;2023-02-01T04:15:48;9.73;;;2.80;;
74541;SDS011;63015;45.378;20.360;2023-02-01T04:17:49;7.72;;;2.70;;
74541;SDS011;63015;45.378;20.360;2023-02-01T04:19:50;7.18;;;2.60;;
74541;SDS011;63015;45.378;20.360;2023-02-01T04:21:51;7.40;;;2.35;;
74541;SDS011;63015;45.378;20.360;2023-02-01T04:23:51;7.10;;;1.98;;
74541;SDS011;63015;45.378;20.360;2023-02-01T04:25:52;5.78;;;2.08;;
74541;SDS011;63015;45.378;20.360;2023-02-01T04:27:53;8.35;;;2.55;;
74541;SDS011;63015;45.378;20.360;2023-02-01T04:29:54;8.05;;;2.33;;
74541;SDS011;63015;45.378;20.360;2023-02-01T04:31:55;6.60;;;2.50;;
74541;SDS011;63015;45.378;20.360;2023-02-01T04:33:56;6.70;;;2.20;;
74541;SDS011;63015;45.378;20.360;2023-02-01T04:36:00;7.72;;;2.42;;
74541;SDS011;63015;45.378;20.360;2023-02-01T04:38:01;7.22;;;1.98;;
74541;SDS011;63015;45.378;20.360;2023-02-01T04:40:01;6.40;;;2.05;;
74541;SDS011;63015;45.378;20.360;2023-02-01T04:42:03;4.30;;;2.25;;
74541;SDS011;63015;45.378;20.360;2023-02-01T04:44:04;5.38;;;1.98;;
74541;SDS011;63015;45.378;20.360;2023-02-01T04:46:04;5.70;;;2.00;;
74541;SDS011;63015;45.378;20.360;2023-02-01T04:48:05;5.07;;;1.77;;
74541;SDS011;63015;45.378;20.360;2023-02-01T04:50:05;6.60;;;1.83;;
74541;SDS011;63015;45.378;20.360;2023-02-01T04:52:08;6.05;;;2.10;;
74541;SDS011;63015;45.378;20.360;2023-02-01T04:54:09;5.30;;;2.28;;
74541;SDS011;63015;45.378;20.360;2023-02-01T04:56:11;4.90;;;2.08;;
74541;SDS011;63015;45.378;20.360;2023-02-01T04:58:12;7.55;;;2.10;;
74541;SDS011;63015;45.378;20.360;2023-02-01T05:00:12;6.50;;;2.25;;
74541;SDS011;63015;45.378;20.360;2023-02-01T05:02:13;6.82;;;2.28;;
74541;SDS011;63015;45.378;20.360;2023-02-01T05:04:13;5.60;;;2.15;;
74541;SDS011;63015;45.378;20.360;2023-02-01T05:06:14;5.63;;;2.15;;
74541;SDS011;63015;45.378;20.360;2023-02-01T05:08:15;7.60;;;2.45;;
74541;SDS011;63015;45.378;20.360;2023-02-01T05:10:16;7.25;;;2.30;;
74541;SDS011;63015;45.378;20.360;2023-02-01T05:12:16;5.63;;;2.20;;
74541;SDS011;63015;45.378;20.360;2023-02-01T05:14:35;6.22;;;2.50;;
74541;SDS011;63015;45.378;20.360;2023-02-01T05:16:36;8.25;;;2.78;;
74541;SDS011;63015;45.378;20.360;2023-02-01T05:18:37;7.60;;;2.58;;
74541;SDS011;63015;45.378;20.360;2023-02-01T05:20:37;6.85;;;2.85;;
74541;SDS011;63015;45.378;20.360;2023-02-01T05:22:38;8.25;;;2.42;;
74541;SDS011;63015;45.378;20.360;2023-02-01T05:24:38;7.68;;;2.10;;
74541;SDS011;63015;45.378;20.360;2023-02-01T05:26:40;7.32;;;2.53;;
74541;SDS011;63015;45.378;20.360;2023-02-01T05:28:41;8.32;;;2.90;;
74541;SDS011;63015;45.378;20.360;2023-02-01T05:30:41;9.00;;;2.88;;
74541;SDS011;63015;45.378;20.360;2023-02-01T05:32:42;11.75;;;3.92;;
74541;SDS011;63015;45.378;20.360;2023-02-01T05:34:42;9.43;;;3.17;;
74541;SDS011;63015;45.378;20.360;2023-02-01T05:36:43;8.65;;;4.35;;
74541;SDS011;63015;45.378;20.360;2023-02-01T05:38:43;9.48;;;3.40;;
74541;SDS011;63015;45.378;20.360;2023-02-01T05:40:44;15.07;;;3.75;;
74541;SDS011;63015;45.378;20.360;2023-02-01T05:42:49;8.23;;;2.88;;
74541;SDS011;63015;45.378;20.360;2023-02-01T05:44:50;9.50;;;3.08;;
74541;SDS011;63015;45.378;20.360;2023-02-01T05:46:50;9.82;;;3.65;;
74541;SDS011;63015;45.378;20.360;2023-02-01T05:48:52;8.82;;;3.65;;
74541;SDS011;63015;45.378;20.360;2023-02-01T05:50:53;11.15;;;3.75;;
74541;SDS011;63015;45.378;20.360;2023-02-01T05:52:53;8.95;;;3.60;;
74541;SDS011;63015;45.378;20.360;2023-02-01T05:54:54;9.25;;;3.92;;
74541;SDS011;63015;45.378;20.360;2023-02-01T05:56:54;7.03;;;3.55;;
74541;SDS011;63015;45.378;20.360;2023-02-01T05:58:55;7.53;;;2.45;;
74541;SDS011;63015;45.378;20.360;2023-02-01T06:00:55;9.18;;;4.18;;
74541;SDS011;63015;45.378;20.360;2023-02-01T06:02:56;7.80;;;3.20;;
74541;SDS011;63015;45.378;20.360;2023-02-01T06:04:56;9.35;;;3.80;;
74541;SDS011;63015;45.378;20.360;2023-02-01T06:06:57;9.80;;;3.08;;
74541;SDS011;63015;45.378;20.360;2023-02-01T06:08:57;7.97;;;3.83;;
74541;SDS011;63015;45.378;20.360;2023-02-01T06:10:59;7.93;;;3.45;;
74541;SDS011;63015;45.378;20.360;2023-02-01T06:13:00;8.30;;;2.28;;
74541;SDS011;63015;45.378;20.360;2023-02-01T06:15:03;9.70;;;3.45;;
74541;SDS011;63015;45.378;20.360;2023-02-01T06:17:03;11.35;;;3.95;;
74541;SDS011;63015;45.378;20.360;2023-02-01T06:19:06;8.13;;;3.35;;
74541;SDS011;63015;45.378;20.360;2023-02-01T06:21:06;6.40;;;2.65;;
74541;SDS011;63015;45.378;20.360;2023-02-01T06:23:07;8.13;;;3.60;;
74541;SDS011;63015;45.378;20.360;2023-02-01T06:25:09;7.32;;;3.10;;
74541;SDS011;63015;45.378;20.360;2023-02-01T06:27:10;11.63;;;3.80;;
74541;SDS011;63015;45.378;20.360;2023-02-01T06:29:11;9.27;;;3.70;;
74541;SDS011;63015;45.378;20.360;2023-02-01T06:31:12;4.75;;;2.05;;
74541;SDS011;63015;45.378;20.360;2023-02-01T06:33:13;3.67;;;1.77;;
74541;SDS011;63015;45.378;20.360;2023-02-01T06:35:15;13.90;;;3.90;;
74541;SDS011;63015;45.378;20.360;2023-02-01T06:37:16;9.55;;;3.22;;
74541;SDS011;63015;45.378;20.360;2023-02-01T06:39:16;11.93;;;4.28;;
74541;SDS011;63015;45.378;20.360;2023-02-01T06:41:17;7.90;;;3.60;;
74541;SDS011;63015;45.378;20.360;2023-02-01T06:43:17;7.55;;;3.42;;
74541;SDS011;63015;45.378;20.360;2023-02-01T06:45:18;10.63;;;4.55;;
74541;SDS011;63015;45.378;20.360;2023-02-01T06:47:18;6.97;;;3.13;;
74541;SDS011;63015;45.378;20.360;2023-02-01T06:49:19;9.52;;;3.10;;
74541;SDS011;63015;45.378;20.360;2023-02-01T06:51:24;14.25;;;5.07;;
74541;SDS011;63015;45.378;20.360;2023-02-01T06:53:25;10.23;;;4.22;;
74541;SDS011;63015;45.378;20.360;2023-02-01T06:55:26;10.40;;;4.75;;
74541;SDS011;63015;45.378;20.360;2023-02-01T06:57:26;10.30;;;4.60;;
74541;SDS011;63015;45.378;20.360;2023-02-01T07:01:31;9.15;;;4.00;;
74541;SDS011;63015;45.378;20.360;2023-02-01T07:03:31;8.32;;;3.38;;
74541;SDS011;63015;45.378;20.360;2023-02-01T07:05:32;9.43;;;3.80;;
74541;SDS011;63015;45.378;20.360;2023-02-01T07:07:32;10.88;;;4.43;;
74541;SDS011;63015;45.378;20.360;2023-02-01T07:09:33;12.27;;;4.85;;
74541;SDS011;63015;45.378;20.360;2023-02-01T07:11:34;11.05;;;4.60;;
74541;SDS011;63015;45.378;20.360;2023-02-01T07:13:37;16.30;;;5.63;;
74541;SDS011;63015;45.378;20.360;2023-02-01T07:15:40;11.85;;;5.85;;
74541;SDS011;63015;45.378;20.360;2023-02-01T07:17:40;12.93;;;4.30;;
74541;SDS011;63015;45.378;20.360;2023-02-01T07:19:41;13.80;;;6.13;;
74541;SDS011;63015;45.378;20.360;2023-02-01T07:21:41;11.55;;;4.13;;
74541;SDS011;63015;45.378;20.360;2023-02-01T07:23:42;15.07;;;6.22;;
74541;SDS011;63015;45.378;20.360;2023-02-01T07:25:42;15.00;;;6.50;;
74541;SDS011;63015;45.378;20.360;2023-02-01T07:27:43;10.60;;;4.43;;
74541;SDS011;63015;45.378;20.360;2023-02-01T07:29:43;11.85;;;4.72;;
74541;SDS011;63015;45.378;20.360;2023-02-01T07:31:44;12.70;;;4.05;;
74541;SDS011;63015;45.378;20.360;2023-02-01T07:33:45;11.30;;;4.90;;
74541;SDS011;63015;45.378;20.360;2023-02-01T07:35:46;13.13;;;5.43;;
74541;SDS011;63015;45.378;20.360;2023-02-01T07:37:47;13.20;;;5.60;;
74541;SDS011;63015;45.378;20.360;2023-02-01T07:39:47;14.15;;;4.53;;
74541;SDS011;63015;45.378;20.360;2023-02-01T07:41:48;12.10;;;5.30;;
74541;SDS011;63015;45.378;20.360;2023-02-01T07:43:48;15.52;;;5.00;;
74541;SDS011;63015;45.378;20.360;2023-02-01T07:45:53;13.65;;;5.63;;
74541;SDS011;63015;45.378;20.360;2023-02-01T07:47:55;13.02;;;5.40;;
74541;SDS011;63015;45.378;20.360;2023-02-01T07:49:55;14.38;;;6.28;;
74541;SDS011;63015;45.378;20.360;2023-02-01T07:51:56;11.48;;;5.75;;
74541;SDS011;63015;45.378;20.360;2023-02-01T07:53:56;11.02;;;4.95;;
74541;SDS011;63015;45.378;20.360;2023-02-01T07:55:57;11.93;;;4.85;;
74541;SDS011;63015;45.378;20.360;2023-02-01T07:57:57;9.38;;;4.45;;
74541;SDS011;63015;45.378;20.360;2023-02-01T07:59:58;14.68;;;6.03;;
74541;SDS011;63015;45.378;20.360;2023-02-01T08:02:17;9.43;;;4.22;;
74541;SDS011;63015;45.378;20.360;2023-02-01T08:04:18;12.02;;;6.15;;
74541;SDS011;63015;45.378;20.360;2023-02-01T08:06:19;10.43;;;4.30;;
74541;SDS011;63015;45.378;20.360;2023-02-01T08:08:20;7.72;;;3.40;;
74541;SDS011;63015;45.378;20.360;2023-02-01T08:10:21;12.20;;;4.80;;
74541;SDS011;63015;45.378;20.360;2023-02-01T08:12:22;10.70;;;4.63;;
74541;SDS011;63015;45.378;20.360;2023-02-01T08:14:22;13.00;;;4.65;;
74541;SDS011;63015;45.378;20.360;2023-02-01T08:16:23;10.60;;;4.43;;
74541;SDS011;63015;45.378;20.360;2023-02-01T08:18:24;9.60;;;4.75;;
74541;SDS011;63015;45.378;20.360;2023-02-01T08:20:25;9.45;;;4.93;;
74541;SDS011;63015;45.378;20.360;2023-02-01T08:22:31;15.77;;;5.45;;
74541;SDS011;63015;45.378;20.360;2023-02-01T08:26:35;10.93;;;4.40;;
74541;SDS011;63015;45.378;20.360;2023-02-01T08:28:36;11.30;;;4.93;;
74541;SDS011;63015;45.378;20.360;2023-02-01T08:30:39;8.18;;;4.20;;
74541;SDS011;63015;45.378;20.360;2023-02-01T08:32:39;9.45;;;4.80;;
74541;SDS011;63015;45.378;20.360;2023-02-01T08:34:40;9.45;;;4.22;;
74541;SDS011;63015;45.378;20.360;2023-02-01T08:36:40;9.00;;;3.40;;
74541;SDS011;63015;45.378;20.360;2023-02-01T08:38:41;8.18;;;3.10;;
74541;SDS011;63015;45.378;20.360;2023-02-01T08:40:42;7.53;;;3.70;;
74541;SDS011;63015;45.378;20.360;2023-02-01T08:42:42;10.70;;;3.83;;
74541;SDS011;63015;45.378;20.360;2023-02-01T08:44:52;11.10;;;3.97;;
74541;SDS011;63015;45.378;20.360;2023-02-01T08:46:52;8.57;;;5.00;;
74541;SDS011;63015;45.378;20.360;2023-02-01T08:48:53;11.57;;;4.32;;
74541;SDS011;63015;45.378;20.360;2023-02-01T08:50:53;12.35;;;6.20;;
74541;SDS011;63015;45.378;20.360;2023-02-01T08:52:55;8.40;;;3.72;;
74541;SDS011;63015;45.378;20.360;2023-02-01T08:54:55;9.90;;;4.47;;
74541;SDS011;63015;45.378;20.360;2023-02-01T08:56:56;11.52;;;5.28;;
74541;SDS011;63015;45.378;20.360;2023-02-01T08:58:56;12.70;;;6.68;;
74541;SDS011;63015;45.378;20.360;2023-02-01T09:00:57;10.60;;;5.43;;
74541;SDS011;63015;45.378;20.360;2023-02-01T09:02:57;12.02;;;5.78;;
74541;SDS011;63015;45.378;20.360;2023-02-01T09:04:58;11.65;;;6.25;;
74541;SDS011;63015;45.378;20.360;2023-02-01T09:06:59;8.68;;;4.20;;
74541;SDS011;63015;45.378;20.360;2023-02-01T09:08:59;10.75;;;6.28;;
74541;SDS011;63015;45.378;20.360;2023-02-01T09:11:00;14.45;;;6.85;;
74541;SDS011;63015;45.378;20.360;2023-02-01T09:13:05;12.95;;;5.80;;
74541;SDS011;63015;45.378;20.360;2023-02-01T09:15:06;10.48;;;4.88;;
74541;SDS011;63015;45.378;20.360;2023-02-01T09:17:07;9.93;;;3.90;;
74541;SDS011;63015;45.378;20.360;2023-02-01T09:19:07;10.65;;;4.75;;
74541;SDS011;63015;45.378;20.360;2023-02-01T09:21:08;10.23;;;4.30;;
74541;SDS011;63015;45.378;20.360;2023-02-01T09:23:09;12.98;;;4.75;;
74541;SDS011;63015;45.378;20.360;2023-02-01T09:25:09;9.07;;;4.22;;
74541;SDS011;63015;45.378;20.360;2023-02-01T09:27:10;9.10;;;3.85;;
74541;SDS011;63015;45.378;20.360;2023-02-01T09:29:10;9.00;;;4.45;;
74541;SDS011;63015;45.378;20.360;2023-02-01T09:31:11;8.88;;;4.13;;
74541;SDS011;63015;45.378;20.360;2023-02-01T09:33:11;10.25;;;4.15;;
74541;SDS011;63015;45.378;20.360;2023-02-01T09:35:12;7.85;;;4.03;;
74541;SDS011;63015;45.378;20.360;2023-02-01T09:37:12;8.35;;;3.00;;
74541;SDS011;63015;45.378;20.360;2023-02-01T09:39:13;8.70;;;3.30;;
74541;SDS011;63015;45.378;20.360;2023-02-01T09:46:32;7.22;;;2.85;;
74541;SDS011;63015;45.378;20.360;2023-02-01T09:48:35;6.65;;;3.20;;
74541;SDS011;63015;45.378;20.360;2023-02-01T09:50:41;9.60;;;2.95;;
74541;SDS011;63015;45.378;20.360;2023-02-01T09:53:05;5.90;;;2.92;;
74541;SDS011;63015;45.378;20.360;2023-02-01T09:55:34;9.40;;;3.60;;
74541;SDS011;63015;45.378;20.360;2023-02-01T09:59:53;8.88;;;3.13;;
74541;SDS011;63015;45.378;20.360;2023-02-01T10:02:00;7.47;;;3.15;;
74541;SDS011;63015;45.378;20.360;2023-02-01T10:04:10;7.32;;;3.05;;
74541;SDS011;63015;45.378;20.360;2023-02-01T10:11:53;9.82;;;4.05;;
74541;SDS011;63015;45.378;20.360;2023-02-01T10:14:08;7.53;;;3.60;;
74541;SDS011;63015;45.378;20.360;2023-02-01T10:27:28;10.98;;;4.40;;
74541;SDS011;63015;45.378;20.360;2023-02-01T10:29:36;8.43;;;3.47;;
74541;SDS011;63015;45.378;20.360;2023-02-01T10:31:39;10.00;;;3.97;;
74541;SDS011;63015;45.378;20.360;2023-02-01T10:33:41;11.25;;;4.07;;
74541;SDS011;63015;45.378;20.360;2023-02-01T10:35:52;7.47;;;3.17;;
74541;SDS011;63015;45.378;20.360;2023-02-01T10:38:00;9.52;;;4.60;;
74541;SDS011;63015;45.378;20.360;2023-02-01T10:40:12;11.70;;;4.90;;
74541;SDS011;63015;45.378;20.360;2023-02-01T10:42:17;7.40;;;3.88;;
74541;SDS011;63015;45.378;20.360;2023-02-01T10:44:22;12.38;;;5.25;;
74541;SDS011;63015;45.378;20.360;2023-02-01T10:46:26;10.00;;;5.45;;
74541;SDS011;63015;45.378;20.360;2023-02-01T10:48:26;18.83;;;10.45;;
74541;SDS011;63015;45.378;20.360;2023-02-01T10:54:57;11.60;;;6.10;;
74541;SDS011;63015;45.378;20.360;2023-02-01T10:59:33;8.18;;;4.50;;
74541;SDS011;63015;45.378;20.360;2023-02-01T11:01:39;9.18;;;4.32;;
74541;SDS011;63015;45.378;20.360;2023-02-01T11:03:45;10.95;;;4.55;;
74541;SDS011;63015;45.378;20.360;2023-02-01T11:05:54;9.02;;;3.85;;
74541;SDS011;63015;45.378;20.360;2023-02-01T11:07:56;8.77;;;4.50;;
74541;SDS011;63015;45.378;20.360;2023-02-01T11:09:56;12.27;;;5.97;;
74541;SDS011;63015;45.378;20.360;2023-02-01T11:11:58;13.50;;;6.35;;
74541;SDS011;63015;45.378;20.360;2023-02-01T11:14:01;13.70;;;5.78;;
74541;SDS011;63015;45.378;20.360;2023-02-01T11:16:13;27.50;;;11.13;;
74541;SDS011;63015;45.378;20.360;2023-02-01T11:18:18;12.82;;;7.55;;
74541;SDS011;63015;45.378;20.360;2023-02-01T11:20:34;10.90;;;5.88;;
74541;SDS011;63015;45.378;20.360;2023-02-01T11:22:45;13.88;;;5.60;;
74541;SDS011;63015;45.378;20.360;2023-02-01T11:24:52;13.38;;;5.75;;
74541;SDS011;63015;45.378;20.360;2023-02-01T11:26:54;13.98;;;5.80;;
74541;SDS011;63015;45.378;20.360;2023-02-01T11:29:03;11.55;;;5.35;;
74541;SDS011;63015;45.378;20.360;2023-02-01T11:31:11;11.73;;;3.85;;
74541;SDS011;63015;45.378;20.360;2023-02-01T11:33:14;8.75;;;4.10;;
74541;SDS011;63015;45.378;20.360;2023-02-01T11:35:19;10.23;;;4.97;;
74541;SDS011;63015;45.378;20.360;2023-02-01T11:37:21;10.40;;;5.03;;
74541;SDS011;63015;45.378;20.360;2023-02-01T11:39:31;10.07;;;4.90;;
74541;SDS011;63015;45.378;20.360;2023-02-01T11:41:34;19.50;;;9.05;;
74541;SDS011;63015;45.378;20.360;2023-02-01T11:43:56;11.63;;;6.15;;
74541;SDS011;63015;45.378;20.360;2023-02-01T11:46:00;10.05;;;4.68;;
74541;SDS011;63015;45.378;20.360;2023-02-01T11:48:01;8.70;;;3.90;;
74541;SDS011;63015;45.378;20.360;2023-02-01T11:50:16;9.57;;;4.43;;
74541;SDS011;63015;45.378;20.360;2023-02-01T11:54:45;10.38;;;4.10;;
74541;SDS011;63015;45.378;20.360;2023-02-01T11:59:19;7.95;;;3.00;;
74541;SDS011;63015;45.378;20.360;2023-02-01T12:01:30;5.55;;;2.42;;
74541;SDS011;63015;45.378;20.360;2023-02-01T12:08:41;6.60;;;2.65;;
74541;SDS011;63015;45.378;20.360;2023-02-01T12:25:28;8.77;;;4.68;;
74541;SDS011;63015;45.378;20.360;2023-02-01T12:32:24;8.85;;;3.70;;
74541;SDS011;63015;45.378;20.360;2023-02-01T12:37:39;11.85;;;4.85;;
74541;SDS011;63015;45.378;20.360;2023-02-01T12:40:16;10.57;;;4.38;;
74541;SDS011;63015;45.378;20.360;2023-02-01T12:48:53;10.65;;;4.95;;
74541;SDS011;63015;45.378;20.360;2023-02-01T12:51:09;9.93;;;4.95;;
74541;SDS011;63015;45.378;20.360;2023-02-01T12:55:22;16.63;;;6.72;;
74541;SDS011;63015;45.378;20.360;2023-02-01T12:57:30;12.38;;;6.28;;
74541;SDS011;63015;45.378;20.360;2023-02-01T12:59:41;10.75;;;4.38;;
74541;SDS011;63015;45.378;20.360;2023-02-01T13:01:53;9.13;;;4.50;;
74541;SDS011;63015;45.378;20.360;2023-02-01T13:06:10;6.32;;;3.28;;
74541;SDS011;63015;45.378;20.360;2023-02-01T13:10:40;6.32;;;2.67;;
74541;SDS011;63015;45.378;20.360;2023-02-01T13:12:54;6.35;;;3.33;;
74541;SDS011;63015;45.378;20.360;2023-02-01T13:15:04;7.30;;;2.78;;
74541;SDS011;63015;45.378;20.360;2023-02-01T13:17:20;9.23;;;4.43;;
74541;SDS011;63015;45.378;20.360;2023-02-01T13:21:44;8.95;;;2.78;;
74541;SDS011;63015;45.378;20.360;2023-02-01T13:23:48;8.07;;;3.30;;
74541;SDS011;63015;45.378;20.360;2023-02-01T13:25:51;5.95;;;2.38;;
74541;SDS011;63015;45.378;20.360;2023-02-01T13:27:53;6.60;;;2.80;;
74541;SDS011;63015;45.378;20.360;2023-02-01T13:36:58;8.65;;;3.00;;
74541;SDS011;63015;45.378;20.360;2023-02-01T13:44:19;6.28;;;2.38;;
74541;SDS011;63015;45.378;20.360;2023-02-01T13:46:29;7.55;;;2.92;;
74541;SDS011;63015;45.378;20.360;2023-02-01T13:50:41;9.20;;;4.68;;
74541;SDS011;63015;45.378;20.360;2023-02-01T13:52:43;10.57;;;4.45;;
74541;SDS011;63015;45.378;20.360;2023-02-01T13:56:45;8.00;;;3.00;;
74541;SDS011;63015;45.378;20.360;2023-02-01T13:58:46;8.75;;;3.10;;
74541;SDS011;63015;45.378;20.360;2023-02-01T14:00:49;10.38;;;4.55;;
74541;SDS011;63015;45.378;20.360;2023-02-01T14:07:01;8.50;;;3.30;;
74541;SDS011;63015;45.378;20.360;2023-02-01T14:11:30;10.63;;;5.15;;
74541;SDS011;63015;45.378;20.360;2023-02-01T14:13:47;9.30;;;3.67;;
74541;SDS011;63015;45.378;20.360;2023-02-01T14:18:25;6.72;;;2.80;;
74541;SDS011;63015;45.378;20.360;2023-02-01T14:20:42;9.23;;;3.50;;
74541;SDS011;63015;45.378;20.360;2023-02-01T14:22:48;8.25;;;3.65;;
74541;SDS011;63015;45.378;20.360;2023-02-01T14:24:49;10.25;;;4.20;;
74541;SDS011;63015;45.378;20.360;2023-02-01T14:26:54;13.90;;;4.82;;
74541;SDS011;63015;45.378;20.360;2023-02-01T14:30:59;14.73;;;5.43;;